createdAt,value
2018-03-17T00:00:02.265Z,74.60
2018-03-17T00:02:29.744Z,73.90
2018-03-17T00:04:57.208Z,74.20
2018-03-17T00:07:24.688Z,73.70
2018-03-17T00:09:52.140Z,73.60
2018-03-17T00:12:19.628Z,73.10
2018-03-17T00:14:47.116Z,72.90
2018-03-17T00:17:14.601Z,73.10
2018-03-17T00:19:42.073Z,73.30
2018-03-17T00:22:10.335Z,73.50
2018-03-17T00:24:37.799Z,73.50
2018-03-17T00:27:06.109Z,72.80
2018-03-17T00:29:33.567Z,72.70
2018-03-17T00:32:01.049Z,73.00
2018-03-17T00:34:28.520Z,73.10
2018-03-17T00:36:56.036Z,73.20
2018-03-17T00:39:23.507Z,72.60
2018-03-17T00:41:50.989Z,72.50
2018-03-17T00:44:18.695Z,72.20
2018-03-17T00:46:46.958Z,72.10
2018-03-17T00:49:14.430Z,72.10
2018-03-17T00:51:42.695Z,72.10
2018-03-17T00:54:10.926Z,71.70
2018-03-17T00:56:38.405Z,71.70
2018-03-17T00:59:05.864Z,71.10
2018-03-17T01:01:33.335Z,70.70
2018-03-17T01:04:02.344Z,70.70
2018-03-17T01:06:30.574Z,70.70
2018-03-17T01:08:58.069Z,70.80
2018-03-17T01:11:26.297Z,69.90
2018-03-17T01:13:53.783Z,70.40
2018-03-17T01:16:21.255Z,71.10
2018-03-17T01:18:48.746Z,70.40
2018-03-17T01:21:16.267Z,70.00
2018-03-17T01:23:43.716Z,70.60
2018-03-17T01:26:11.196Z,70.90
2018-03-17T01:28:39.507Z,70.90
2018-03-17T01:31:06.968Z,70.90
2018-03-17T01:33:34.479Z,70.80
2018-03-17T01:36:02.728Z,71.20
2018-03-17T01:38:30.210Z,71.10
2018-03-17T01:40:58.439Z,69.90
2018-03-17T01:43:25.927Z,69.60
2018-03-17T01:45:53.383Z,69.60
2018-03-17T01:48:20.873Z,69.10
2018-03-17T01:50:49.102Z,69.20
2018-03-17T01:53:16.591Z,69.20
2018-03-17T01:55:44.829Z,69.70
2018-03-17T01:58:12.300Z,69.60
2018-03-17T02:00:41.284Z,70.10
2018-03-17T02:03:08.770Z,70.10
2018-03-17T02:05:36.257Z,70.50
2018-03-17T02:08:03.737Z,71.50
2018-03-17T02:10:31.201Z,69.90
2018-03-17T02:12:58.694Z,69.80
2018-03-17T02:15:27.668Z,70.10
2018-03-17T02:17:55.144Z,70.10
2018-03-17T02:20:22.627Z,69.60
2018-03-17T02:22:50.108Z,69.40
2018-03-17T02:25:17.581Z,69.90
2018-03-17T02:27:45.070Z,69.60
2018-03-17T02:30:12.536Z,69.20
2018-03-17T02:32:40.086Z,69.60
2018-03-17T02:35:07.548Z,69.30
2018-03-17T02:37:35.039Z,70.00
2018-03-17T02:40:02.573Z,70.20
2018-03-17T02:42:30.834Z,70.30
2018-03-17T02:44:58.298Z,70.20
2018-03-17T02:47:25.793Z,69.50
2018-03-17T02:49:53.273Z,70.10
2018-03-17T02:52:20.763Z,69.90
2018-03-17T02:54:48.228Z,70.10
2018-03-17T02:57:15.708Z,69.20
2018-03-17T02:59:43.184Z,69.60
2018-03-17T03:02:10.678Z,69.90
2018-03-17T03:04:38.163Z,69.60
2018-03-17T03:07:05.647Z,69.60
2018-03-17T03:09:33.104Z,69.30
2018-03-17T03:12:00.580Z,69.00
2018-03-17T03:14:28.065Z,69.00
2018-03-17T03:16:55.652Z,69.00
2018-03-17T03:19:23.909Z,69.00
2018-03-17T03:21:51.373Z,68.80
2018-03-17T03:24:18.865Z,68.10
2018-03-17T03:26:46.331Z,68.80
2018-03-17T03:29:13.812Z,68.70
2018-03-17T03:31:41.289Z,68.70
2018-03-17T03:34:08.777Z,68.80
2018-03-17T03:36:37.004Z,69.40
2018-03-17T03:39:04.496Z,69.30
2018-03-17T03:41:31.970Z,69.50
2018-03-17T03:44:00.212Z,69.50
2018-03-17T03:46:27.684Z,69.40
2018-03-17T03:48:55.179Z,69.10
2018-03-17T03:51:22.649Z,69.00
2018-03-17T03:53:50.124Z,68.50
2018-03-17T03:56:17.612Z,68.40
2018-03-17T03:58:45.088Z,68.90
2018-03-17T04:01:13.332Z,69.30
2018-03-17T04:03:40.819Z,69.20
2018-03-17T04:06:09.057Z,68.40
2018-03-17T04:08:36.536Z,68.30
2018-03-17T04:11:04.004Z,68.40
2018-03-17T04:13:32.247Z,68.80
2018-03-17T04:15:59.720Z,68.00
2018-03-17T04:18:27.204Z,68.50
2018-03-17T04:20:55.433Z,68.50
2018-03-17T04:23:22.919Z,68.50
2018-03-17T04:25:51.172Z,67.80
2018-03-17T04:28:18.653Z,67.80
2018-03-17T04:30:46.108Z,68.20
2018-03-17T04:33:14.353Z,68.40
2018-03-17T04:35:41.817Z,68.40
2018-03-17T04:38:09.305Z,68.40
2018-03-17T04:40:37.532Z,68.60
2018-03-17T04:43:05.019Z,68.00
2018-03-17T04:45:32.482Z,68.00
2018-03-17T04:47:59.965Z,68.00
2018-03-17T04:50:28.212Z,67.50
2018-03-17T04:52:55.685Z,67.40
2018-03-17T04:55:23.920Z,67.50
2018-03-17T04:57:51.404Z,67.50
2018-03-17T05:00:18.876Z,67.50
2018-03-17T05:02:47.129Z,67.50
2018-03-17T05:05:14.592Z,67.50
2018-03-17T05:07:42.098Z,67.40
2018-03-17T05:10:09.594Z,67.60
2018-03-17T05:12:37.110Z,67.40
2018-03-17T05:15:04.580Z,68.40
2018-03-17T05:17:32.080Z,68.40
2018-03-17T05:20:00.325Z,67.40
2018-03-17T05:22:27.781Z,67.40
2018-03-17T05:24:55.275Z,67.60
2018-03-17T05:27:22.740Z,68.00
2018-03-17T05:29:51.001Z,68.50
2018-03-17T05:32:18.466Z,68.40
2018-03-17T05:34:45.961Z,68.80
2018-03-17T05:37:13.439Z,68.50
2018-03-17T05:39:40.938Z,68.30
2018-03-17T05:42:08.401Z,68.50
2018-03-17T05:44:35.876Z,69.10
2018-03-17T05:47:04.105Z,68.20
2018-03-17T05:49:31.597Z,68.00
2018-03-17T05:51:59.828Z,68.00
2018-03-17T05:54:27.318Z,68.00
2018-03-17T05:56:54.786Z,68.50
2018-03-17T05:59:23.028Z,68.30
2018-03-17T06:01:50.483Z,68.10
2018-03-17T06:04:18.002Z,68.20
2018-03-17T06:06:46.225Z,67.90
2018-03-17T06:09:13.705Z,67.80
2018-03-17T06:11:41.182Z,67.90
2018-03-17T06:14:09.429Z,67.90
2018-03-17T06:16:36.887Z,67.80
2018-03-17T06:19:04.373Z,68.50
2018-03-17T06:21:31.832Z,68.30
2018-03-17T06:23:59.325Z,68.30
2018-03-17T06:26:26.793Z,68.30
2018-03-17T06:28:54.276Z,68.50
2018-03-17T06:31:21.755Z,68.90
2018-03-17T06:33:49.994Z,68.40
2018-03-17T06:36:17.504Z,68.20
2018-03-17T06:38:44.992Z,68.10
2018-03-17T06:41:12.465Z,68.40
2018-03-17T06:43:39.947Z,67.90
2018-03-17T06:46:08.173Z,68.30
2018-03-17T06:48:35.694Z,68.20
2018-03-17T06:51:03.124Z,67.40
2018-03-17T06:53:31.369Z,68.00
2018-03-17T06:55:58.828Z,68.00
2018-03-17T06:58:26.317Z,68.00
2018-03-17T07:00:53.777Z,68.10
2018-03-17T07:03:21.262Z,67.90
2018-03-17T07:05:48.725Z,67.50
2018-03-17T07:08:16.219Z,67.50
2018-03-17T07:10:43.685Z,67.70
2018-03-17T07:13:11.178Z,67.70
2018-03-17T07:15:39.405Z,66.70
2018-03-17T07:18:06.889Z,66.70
2018-03-17T07:20:34.349Z,67.50
2018-03-17T07:23:01.836Z,66.70
2018-03-17T07:25:29.360Z,66.70
2018-03-17T07:27:56.813Z,66.50
2018-03-17T07:30:24.532Z,66.60
2018-03-17T07:32:52.107Z,66.50
2018-03-17T07:35:19.673Z,66.60
2018-03-17T07:37:47.125Z,67.00
2018-03-17T07:40:14.621Z,66.60
2018-03-17T07:42:42.092Z,67.40
2018-03-17T07:45:10.337Z,66.50
2018-03-17T07:47:37.796Z,66.50
2018-03-17T07:50:05.274Z,66.90
2018-03-17T07:52:33.506Z,66.40
2018-03-17T07:55:00.985Z,66.30
2018-03-17T07:57:28.454Z,66.60
2018-03-17T07:59:55.937Z,66.30
2018-03-17T08:02:23.401Z,66.20
2018-03-17T08:04:50.888Z,65.20
2018-03-17T08:07:18.380Z,65.60
2018-03-17T08:09:45.857Z,65.70
2018-03-17T08:12:14.091Z,65.70
2018-03-17T08:14:41.565Z,65.70
2018-03-17T08:17:09.024Z,64.90
2018-03-17T08:19:37.277Z,64.50
2018-03-17T08:22:04.746Z,64.50
2018-03-17T08:24:32.239Z,64.80
2018-03-17T08:26:59.702Z,64.50
2018-03-17T08:29:27.190Z,64.50
2018-03-17T08:31:54.655Z,64.50
2018-03-17T08:34:22.159Z,64.10
2018-03-17T08:36:49.623Z,64.00
2018-03-17T08:39:17.097Z,64.40
2018-03-17T08:41:44.560Z,64.90
2018-03-17T08:44:12.037Z,65.10
2018-03-17T08:46:40.273Z,65.00
2018-03-17T08:49:07.773Z,65.00
2018-03-17T08:51:35.229Z,64.60
2018-03-17T08:54:02.714Z,64.50
2018-03-17T08:56:30.945Z,65.30
2018-03-17T08:58:58.483Z,65.30
2018-03-17T09:01:25.929Z,65.30
2018-03-17T09:03:53.418Z,65.30
2018-03-17T09:06:20.888Z,65.20
2018-03-17T09:08:48.399Z,64.70
2018-03-17T09:11:15.864Z,64.70
2018-03-17T09:13:43.393Z,64.60
2018-03-17T09:16:11.622Z,64.00
2018-03-17T09:18:39.095Z,64.00
2018-03-17T09:21:06.558Z,63.90
2018-03-17T09:23:34.342Z,63.80
2018-03-17T09:26:02.939Z,63.90
2018-03-17T09:28:30.397Z,63.80
2018-03-17T09:30:57.936Z,63.20
2018-03-17T09:33:26.213Z,62.80
2018-03-17T09:35:54.452Z,63.20
2018-03-17T09:38:21.917Z,63.00
2018-03-17T09:40:49.388Z,63.00
2018-03-17T09:43:16.876Z,62.80
2018-03-17T09:45:44.373Z,62.10
2018-03-17T09:48:11.916Z,62.40
2018-03-17T09:50:39.401Z,62.10
2018-03-17T09:53:06.860Z,61.80
2018-03-17T09:55:34.581Z,62.50
2018-03-17T09:58:02.235Z,62.20
2018-03-17T10:00:29.888Z,61.90
2018-03-17T10:02:57.797Z,62.30
2018-03-17T10:05:25.452Z,62.40
2018-03-17T10:07:53.122Z,62.10
2018-03-17T10:10:21.621Z,61.80
2018-03-17T10:12:49.134Z,61.70
2018-03-17T10:15:16.624Z,61.50
2018-03-17T10:17:44.094Z,61.20
2018-03-17T10:20:11.578Z,61.40
2018-03-17T10:22:40.348Z,60.30
2018-03-17T10:25:08.672Z,60.50
2018-03-17T10:27:36.144Z,60.50
2018-03-17T10:30:03.654Z,59.90
2018-03-17T10:32:31.876Z,60.60
2018-03-17T10:34:59.364Z,60.60
2018-03-17T10:37:28.333Z,60.50
2018-03-17T10:39:55.841Z,60.50
2018-03-17T10:42:24.064Z,59.80
2018-03-17T10:44:51.546Z,59.80
2018-03-17T10:47:19.013Z,60.20
2018-03-17T10:49:48.020Z,60.00
2018-03-17T10:52:16.260Z,60.00
2018-03-17T10:54:43.754Z,59.80
2018-03-17T10:57:11.990Z,59.50
2018-03-17T10:59:39.478Z,59.50
2018-03-17T11:02:10.780Z,59.50
2018-03-17T11:04:38.289Z,59.50
2018-03-17T11:07:06.525Z,59.50
2018-03-17T11:09:34.028Z,59.40
2018-03-17T11:12:01.493Z,59.40
2018-03-17T11:14:29.805Z,59.60
2018-03-17T11:16:57.287Z,58.90
2018-03-17T11:19:24.797Z,58.70
2018-03-17T11:21:53.036Z,58.70
2018-03-17T11:24:20.537Z,58.70
2018-03-17T11:26:48.800Z,58.30
2018-03-17T11:29:17.092Z,58.80
2018-03-17T11:31:44.525Z,58.70
2018-03-17T11:34:12.019Z,58.70
2018-03-17T11:36:39.498Z,58.60
2018-03-17T11:39:06.999Z,58.60
2018-03-17T11:41:35.223Z,59.70
2018-03-17T11:44:02.730Z,58.90
2018-03-17T11:46:30.998Z,58.60
2018-03-17T11:48:58.456Z,58.60
2018-03-17T11:51:26.713Z,58.60
2018-03-17T11:53:54.184Z,58.60
2018-03-17T11:56:23.178Z,58.30
2018-03-17T11:58:50.646Z,58.30
2018-03-17T12:01:18.150Z,58.60
2018-03-17T12:03:45.612Z,59.00
2018-03-17T12:06:13.141Z,58.40
2018-03-17T12:08:40.605Z,58.30
2018-03-17T12:11:08.090Z,58.40
2018-03-17T12:13:35.581Z,57.80
2018-03-17T12:16:03.094Z,58.30
2018-03-17T12:18:30.566Z,58.50
2018-03-17T12:20:58.040Z,57.20
2018-03-17T12:23:25.497Z,56.40
2018-03-17T12:25:52.977Z,57.40
2018-03-17T12:28:20.432Z,57.20
2018-03-17T12:30:47.920Z,57.00
2018-03-17T12:33:15.392Z,57.90
2018-03-17T12:35:42.877Z,57.00
2018-03-17T12:38:10.342Z,57.00
2018-03-17T12:40:37.845Z,57.10
2018-03-17T12:43:05.330Z,56.60
2018-03-17T12:45:32.810Z,56.80
2018-03-17T12:48:00.283Z,57.00
2018-03-17T12:50:28.521Z,56.80
2018-03-17T12:52:56.009Z,56.80
2018-03-17T12:55:23.512Z,56.70
2018-03-17T12:57:50.969Z,56.50
2018-03-17T13:00:18.486Z,56.20
2018-03-17T13:02:45.953Z,55.90
2018-03-17T13:05:13.438Z,56.10
2018-03-17T13:07:40.910Z,56.10
2018-03-17T13:10:08.402Z,56.10
2018-03-17T13:12:35.864Z,56.10
2018-03-17T13:15:03.375Z,56.10
2018-03-17T13:17:30.840Z,56.00
2018-03-17T13:19:58.341Z,56.10
2018-03-17T13:22:25.817Z,56.70
2018-03-17T13:24:54.067Z,56.90
2018-03-17T13:27:33.386Z,56.80
2018-03-17T13:30:00.901Z,56.00
2018-03-17T13:32:41.097Z,55.80
2018-03-17T13:35:08.592Z,55.80
2018-03-17T13:37:38.051Z,55.40
2018-03-17T13:40:12.260Z,55.90
2018-03-17T13:42:39.745Z,56.00
2018-03-17T13:45:07.247Z,55.90
2018-03-17T13:47:35.480Z,55.90
2018-03-17T13:50:02.976Z,55.90
2018-03-17T13:52:31.208Z,56.00
2018-03-17T13:54:58.688Z,55.90
2018-03-17T13:57:26.157Z,55.60
2018-03-17T13:59:53.722Z,56.30
2018-03-17T14:02:21.965Z,55.60
2018-03-17T14:04:49.453Z,55.60
2018-03-17T14:07:17.684Z,55.80
2018-03-17T14:09:45.163Z,55.60
2018-03-17T14:12:12.628Z,55.70
2018-03-17T14:14:40.081Z,55.90
2018-03-17T14:17:07.572Z,55.70
2018-03-17T14:19:35.042Z,56.10
2018-03-17T14:22:02.539Z,56.60
2018-03-17T14:24:30.013Z,56.10
2018-03-17T14:26:57.522Z,55.90
2018-03-17T14:29:24.995Z,55.60
2018-03-17T14:31:52.491Z,55.90
2018-03-17T14:34:19.944Z,56.00
2018-03-17T14:36:48.217Z,55.60
2018-03-17T14:39:15.735Z,55.60
2018-03-17T14:41:43.222Z,55.60
2018-03-17T14:44:10.681Z,55.60
2018-03-17T14:46:38.167Z,56.30
2018-03-17T14:49:06.397Z,56.10
2018-03-17T14:51:33.889Z,56.10
2018-03-17T14:54:01.350Z,56.20
2018-03-17T14:56:29.615Z,56.30
2018-03-17T14:58:57.075Z,56.30
2018-03-17T15:01:24.558Z,55.70
2018-03-17T15:03:52.026Z,56.20
2018-03-17T15:06:19.502Z,56.50
2018-03-17T15:08:46.981Z,56.50
2018-03-17T15:11:14.462Z,56.50
2018-03-17T15:13:41.924Z,56.50
2018-03-17T15:16:09.409Z,55.80
2018-03-17T15:18:36.881Z,56.40
2018-03-17T15:21:04.361Z,57.50
2018-03-17T15:23:31.818Z,60.00
2018-03-17T15:25:59.346Z,57.40
2018-03-17T15:28:26.824Z,56.30
2018-03-17T15:30:54.380Z,56.20
2018-03-17T15:33:21.857Z,55.60
2018-03-17T15:35:49.337Z,55.50
2018-03-17T15:38:16.836Z,55.40
2018-03-17T15:40:44.339Z,55.90
2018-03-17T15:43:11.811Z,55.90
2018-03-17T15:45:40.068Z,56.50
2018-03-17T15:48:07.552Z,56.50
2018-03-17T15:50:35.057Z,57.00
2018-03-17T15:53:02.555Z,56.10
2018-03-17T15:55:30.045Z,56.30
2018-03-17T15:57:57.506Z,56.50
2018-03-17T16:00:25.013Z,56.30
2018-03-17T16:02:52.492Z,56.10
2018-03-17T16:05:20.796Z,56.70
2018-03-17T16:07:48.281Z,56.60
2018-03-17T16:10:15.780Z,56.60
2018-03-17T16:12:44.025Z,56.40
2018-03-17T16:15:11.495Z,57.00
2018-03-17T16:17:39.745Z,56.50
2018-03-17T16:20:07.324Z,56.60
2018-03-17T16:22:34.812Z,56.50
2018-03-17T16:25:03.074Z,56.40
2018-03-17T16:27:30.534Z,56.40
2018-03-17T16:29:58.786Z,56.70
2018-03-17T16:32:26.272Z,56.60
2018-03-17T16:34:54.525Z,56.70
2018-03-17T16:37:22.004Z,56.60
2018-03-17T16:39:50.239Z,56.40
2018-03-17T16:42:17.749Z,56.30
2018-03-17T16:44:45.221Z,56.30
2018-03-17T16:47:13.532Z,56.30
2018-03-17T16:49:41.051Z,56.20
2018-03-17T16:52:08.612Z,56.30
2018-03-17T16:54:36.274Z,56.50
2018-03-17T16:57:03.764Z,56.50
2018-03-17T16:59:31.238Z,56.40
2018-03-17T17:01:58.777Z,56.50
2018-03-17T17:04:26.250Z,57.10
2018-03-17T17:06:53.758Z,56.40
2018-03-17T17:09:21.222Z,56.30
2018-03-17T17:11:48.733Z,56.40
2018-03-17T17:14:16.212Z,56.70
2018-03-17T17:16:43.717Z,56.50
2018-03-17T17:19:11.192Z,57.20
2018-03-17T17:21:38.701Z,56.70
2018-03-17T17:24:06.163Z,56.20
2018-03-17T17:26:33.670Z,56.40
2018-03-17T17:29:01.173Z,56.60
2018-03-17T17:31:28.716Z,56.70
2018-03-17T17:33:56.960Z,56.60
2018-03-17T17:36:24.442Z,56.50
2018-03-17T17:38:52.683Z,56.50
2018-03-17T17:41:20.182Z,56.40
2018-03-17T17:43:48.408Z,56.30
2018-03-17T17:46:15.902Z,56.30
2018-03-17T17:48:44.137Z,56.70
2018-03-17T17:51:11.625Z,56.60
2018-03-17T17:53:39.098Z,56.90
2018-03-17T17:56:07.349Z,56.60
2018-03-17T17:58:34.835Z,56.60
2018-03-17T18:01:03.089Z,57.20
2018-03-17T18:03:31.045Z,57.20
2018-03-17T18:05:58.561Z,57.20
2018-03-17T18:08:26.027Z,57.00
2018-03-17T18:10:53.501Z,56.30
2018-03-17T18:13:20.969Z,56.20
2018-03-17T18:15:49.222Z,56.50
2018-03-17T18:18:16.740Z,56.50
2018-03-17T18:20:44.233Z,56.20
2018-03-17T18:23:11.705Z,56.70
2018-03-17T18:25:39.217Z,56.50
2018-03-17T18:28:06.711Z,56.90
2018-03-17T18:30:34.173Z,56.80
2018-03-17T18:33:01.656Z,56.80
2018-03-17T18:35:29.137Z,56.80
2018-03-17T18:37:56.665Z,56.70
2018-03-17T18:40:24.915Z,56.50
2018-03-17T18:42:52.398Z,56.40
2018-03-17T18:45:20.636Z,56.60
2018-03-17T18:47:48.142Z,56.60
2018-03-17T18:50:16.370Z,56.80
2018-03-17T18:52:43.860Z,56.70
2018-03-17T18:55:12.108Z,56.80
2018-03-17T18:57:39.600Z,56.70
2018-03-17T19:00:07.839Z,56.60
2018-03-17T19:02:35.334Z,56.50
2018-03-17T19:05:03.560Z,56.60
2018-03-17T19:07:31.044Z,56.60
2018-03-17T19:09:58.533Z,57.00
2018-03-17T19:12:26.789Z,56.60
2018-03-17T19:14:55.032Z,56.70
2018-03-17T19:17:22.519Z,56.60
2018-03-17T19:19:49.984Z,56.90
2018-03-17T19:22:18.249Z,56.10
2018-03-17T19:24:45.716Z,56.00
2018-03-17T19:27:13.961Z,56.70
2018-03-17T19:29:41.443Z,56.50
2018-03-17T19:32:08.946Z,57.40
2018-03-17T19:34:36.436Z,57.60
2018-03-17T19:37:03.930Z,57.00
2018-03-17T19:39:32.165Z,57.00
2018-03-17T19:41:59.675Z,56.90
2018-03-17T19:44:27.171Z,57.00
2018-03-17T19:46:54.676Z,57.00
2018-03-17T19:49:22.921Z,56.90
2018-03-17T19:51:50.425Z,56.90
2018-03-17T19:54:17.890Z,56.80
2018-03-17T19:56:45.400Z,56.70
2018-03-17T19:59:12.878Z,57.10
2018-03-17T20:01:40.368Z,57.30
2018-03-17T20:04:07.869Z,57.00
2018-03-17T20:06:35.345Z,56.90
2018-03-17T20:09:02.848Z,57.00
2018-03-17T20:11:30.313Z,56.90
2018-03-17T20:13:57.854Z,56.90
2018-03-17T20:16:25.319Z,56.90
2018-03-17T20:18:52.813Z,56.80
2018-03-17T20:21:20.304Z,56.70
2018-03-17T20:23:48.569Z,57.40
2018-03-17T20:26:16.819Z,57.50
2018-03-17T20:28:44.316Z,57.40
2018-03-17T20:31:12.613Z,57.40
2018-03-17T20:33:40.110Z,57.40
2018-03-17T20:36:07.581Z,57.60
2018-03-17T20:38:35.105Z,57.60
2018-03-17T20:41:03.377Z,57.50
2018-03-17T20:43:31.615Z,57.00
2018-03-17T20:45:59.139Z,57.00
2018-03-17T20:48:26.615Z,57.10
2018-03-17T20:50:54.949Z,57.00
2018-03-17T20:53:23.190Z,57.00
2018-03-17T20:55:50.696Z,57.00
2018-03-17T20:58:18.165Z,57.20
2018-03-17T21:00:45.669Z,57.50
2018-03-17T21:03:13.136Z,57.20
2018-03-17T21:05:40.620Z,56.80
2018-03-17T21:08:08.093Z,57.10
2018-03-17T21:10:35.585Z,57.20
2018-03-17T21:13:03.073Z,57.20
2018-03-17T21:15:30.586Z,57.30
2018-03-17T21:17:58.053Z,57.30
2018-03-17T21:20:25.554Z,63.40
2018-03-17T21:22:53.784Z,57.20
2018-03-17T21:25:21.286Z,57.20
2018-03-17T21:27:49.524Z,57.70
2018-03-17T21:30:17.008Z,57.70
2018-03-17T21:32:44.502Z,57.70
2018-03-17T21:35:12.002Z,58.10
2018-03-17T21:37:39.484Z,57.70
2018-03-17T21:40:06.958Z,57.70
2018-03-17T21:42:35.274Z,57.60
2018-03-17T21:45:03.459Z,57.80
2018-03-17T21:47:30.940Z,57.60
2018-03-17T21:49:58.421Z,57.70
2018-03-17T21:52:26.677Z,57.80
2018-03-17T21:54:54.153Z,57.80
2018-03-17T21:57:22.401Z,58.10
2018-03-17T21:59:50.660Z,58.30
2018-03-17T22:02:18.159Z,58.30
2018-03-17T22:04:46.413Z,57.70
2018-03-17T22:07:13.898Z,57.70
2018-03-17T22:09:42.136Z,58.00
2018-03-17T22:12:09.634Z,57.90
2018-03-17T22:14:37.109Z,58.20
2018-03-17T22:17:04.601Z,58.30
2018-03-17T22:19:32.068Z,58.10
2018-03-17T22:21:59.543Z,58.30
2018-03-17T22:24:27.792Z,58.90
2018-03-17T22:26:55.258Z,58.10
2018-03-17T22:29:22.736Z,58.40
2018-03-17T22:31:51.037Z,58.90
2018-03-17T22:34:18.509Z,58.80
2018-03-17T22:36:45.993Z,58.10
2018-03-17T22:39:13.479Z,58.50
2018-03-17T22:41:40.960Z,58.70
2018-03-17T22:44:08.467Z,58.60
2018-03-17T22:46:35.949Z,58.70
2018-03-17T22:49:03.509Z,58.50
2018-03-17T22:51:31.014Z,58.80
2018-03-17T22:53:58.506Z,59.50
2018-03-17T22:56:25.968Z,58.90
2018-03-17T22:58:54.975Z,58.80
2018-03-17T23:01:22.456Z,58.80
2018-03-17T23:03:49.966Z,59.10
2018-03-17T23:06:17.435Z,59.20
2018-03-17T23:08:45.677Z,58.80
2018-03-17T23:11:13.141Z,58.70
2018-03-17T23:13:40.617Z,59.10
2018-03-17T23:16:08.106Z,59.10
2018-03-17T23:18:35.572Z,58.90
2018-03-17T23:21:03.078Z,58.80
2018-03-17T23:23:31.327Z,58.70
2018-03-17T23:25:58.813Z,58.60
2018-03-17T23:28:26.306Z,58.60
2018-03-17T23:30:53.804Z,59.10
2018-03-17T23:33:21.276Z,59.20
2018-03-17T23:35:48.775Z,59.00
2018-03-17T23:38:16.267Z,58.90
2018-03-17T23:40:43.781Z,59.30
2018-03-17T23:43:12.039Z,60.60
2018-03-17T23:45:39.536Z,60.50
2018-03-17T23:48:07.001Z,60.90
2018-03-17T23:50:34.513Z,60.90
2018-03-17T23:53:02.765Z,61.00
2018-03-17T23:55:30.232Z,60.90
2018-03-17T23:57:57.720Z,62.20
